Time;durP1;ratioP1;P1;durP2;ratioP2;P2;SDS_P1;SDS_P2;PMS_P1;PMS_P2;Temp;Humidity;BMP_temperature;BMP_pressure;BME280_temperature;BME280_humidity;BME280_pressure;Samples;Min_cycle;Max_cycle;Signal;HPM_P1;HPM_P2
2021/07/31 00:02:22;;;;;;;11.98;6.38;;;;;;;;;;6303561;22;20424;-49
2021/07/31 00:04:50;;;;;;;10.68;6.60;;;;;;;;;;6303246;22;20015;-48
2021/07/31 00:07:15;;;;;;;19.27;7.32;;;;;;;;;;6303472;22;19995;-47
2021/07/31 00:09:40;;;;;;;26.90;6.97;;;;;;;;;;6303796;22;20049;-48
2021/07/31 00:12:06;;;;;;;9.43;6.00;;;;;;;;;;6303486;22;20471;-48
2021/07/31 00:14:31;;;;;;;14.50;6.28;;;;;;;;;;6303170;22;19999;-48
2021/07/31 00:16:57;;;;;;;13.45;6.82;;;;;;;;;;6303512;22;20006;-47
2021/07/31 00:19:22;;;;;;;6.93;5.60;;;;;;;;;;6303012;22;20095;-47
2021/07/31 00:21:47;;;;;;;21.80;7.15;;;;;;;;;;6303446;22;19999;-53
2021/07/31 00:24:13;;;;;;;10.00;6.80;;;;;;;;;;6303158;22;20014;-46
2021/07/31 00:26:38;;;;;;;7.43;5.00;;;;;;;;;;6303736;22;20009;-51
2021/07/31 00:29:03;;;;;;;14.98;7.68;;;;;;;;;;6302419;22;20123;-47
2021/07/31 00:31:29;;;;;;;8.52;5.20;;;;;;;;;;6303166;22;20000;-49
2021/07/31 00:33:54;;;;;;;13.70;6.68;;;;;;;;;;6302725;22;20002;-50
2021/07/31 00:36:19;;;;;;;17.38;7.55;;;;;;;;;;6303585;22;20003;-52
2021/07/31 00:38:44;;;;;;;7.30;4.53;;;;;;;;;;6303371;22;19999;-46
2021/07/31 00:41:10;;;;;;;15.63;7.22;;;;;;;;;;6302968;22;20421;-48
2021/07/31 00:43:35;;;;;;;10.32;5.05;;;;;;;;;;6303620;22;20025;-46
2021/07/31 00:46:00;;;;;;;9.02;5.13;;;;;;;;;;6303223;22;20066;-48
2021/07/31 00:48:26;;;;;;;17.33;6.88;;;;;;;;;;6302910;22;19999;-46
2021/07/31 00:50:51;;;;;;;8.25;6.85;;;;;;;;;;6302881;22;19998;-48
2021/07/31 00:53:16;;;;;;;14.43;6.43;;;;;;;;;;6303490;22;20002;-48
2021/07/31 00:55:42;;;;;;;17.40;7.00;;;;;;;;;;6303047;22;20421;-49
2021/07/31 00:58:07;;;;;;;9.52;5.22;;;;;;;;;;6302668;22;20003;-46
2021/07/31 01:00:33;;;;;;;18.77;4.93;;;;;;;;;;6303309;22;19995;-47
2021/07/31 01:02:58;;;;;;;10.95;7.07;;;;;;;;;;6302606;22;20254;-45
2021/07/31 01:05:23;;;;;;;21.77;8.27;;;;;;;;;;6302669;22;20032;-50
2021/07/31 01:07:50;;;;;;;7.57;6.20;;;;;;;;;;6303544;22;20006;-51
2021/07/31 01:10:15;;;;;;;14.23;7.63;;;;;;;;;;6302824;22;20003;-46
2021/07/31 01:12:42;;;;;;;7.65;6.18;;;;;;;;;;6302828;22;20010;-49
2021/07/31 01:15:08;;;;;;;8.18;5.20;;;;;;;;;;6302612;22;20136;-48
2021/07/31 01:17:33;;;;;;;20.80;5.95;;;;;;;;;;6303290;22;20023;-47
2021/07/31 01:19:58;;;;;;;8.50;5.53;;;;;;;;;;6302445;22;20508;-47
2021/07/31 01:22:24;;;;;;;25.83;6.32;;;;;;;;;;6302626;22;20086;-49
2021/07/31 01:24:49;;;;;;;10.85;7.85;;;;;;;;;;6302874;22;19999;-50
2021/07/31 01:27:14;;;;;;;14.60;6.90;;;;;;;;;;6303100;22;20379;-46
2021/07/31 01:29:40;;;;;;;10.80;5.72;;;;;;;;;;6302737;22;20325;-47
2021/07/31 01:32:05;;;;;;;9.35;6.13;;;;;;;;;;6302933;22;19995;-47
2021/07/31 01:34:30;;;;;;;13.40;6.90;;;;;;;;;;6302218;22;20439;-47
2021/07/31 01:36:56;;;;;;;6.75;5.95;;;;;;;;;;6302729;22;20086;-47
2021/07/31 01:39:21;;;;;;;6.60;5.38;;;;;;;;;;6302450;22;20003;-46
2021/07/31 01:41:46;;;;;;;9.65;4.85;;;;;;;;;;6302518;22;20000;-50
2021/07/31 01:44:12;;;;;;;15.27;5.45;;;;;;;;;;6302354;22;19995;-47
2021/07/31 01:46:37;;;;;;;16.23;6.05;;;;;;;;;;6302428;22;20425;-51
2021/07/31 01:49:02;;;;;;;9.40;5.40;;;;;;;;;;6302084;22;20487;-48
2021/07/31 01:51:28;;;;;;;25.42;8.23;;;;;;;;;;6302704;22;20081;-47
2021/07/31 01:53:53;;;;;;;9.80;6.70;;;;;;;;;;6302639;22;19999;-51
2021/07/31 01:56:18;;;;;;;19.45;6.57;;;;;;;;;;6303140;22;20420;-49
2021/07/31 01:58:43;;;;;;;5.53;4.88;;;;;;;;;;6302875;22;20003;-48
2021/07/31 02:01:09;;;;;;;13.85;8.05;;;;;;;;;;6302370;22;20101;-48
2021/07/31 02:03:34;;;;;;;8.63;6.40;;;;;;;;;;6302287;22;19999;-45
2021/07/31 02:06:00;;;;;;;19.60;8.35;;;;;;;;;;6302013;22;20011;-45
2021/07/31 02:08:25;;;;;;;22.20;7.68;;;;;;;;;;6302248;22;20003;-45
2021/07/31 02:10:51;;;;;;;14.27;8.10;;;;;;;;;;6302676;22;19992;-45
2021/07/31 02:13:16;;;;;;;11.70;6.55;;;;;;;;;;6302713;22;20023;-48
2021/07/31 02:15:42;;;;;;;9.15;6.75;;;;;;;;;;6302428;22;20504;-45
2021/07/31 02:18:08;;;;;;;13.52;5.25;;;;;;;;;;6302023;22;20006;-52
2021/07/31 02:20:33;;;;;;;20.23;6.20;;;;;;;;;;6302027;22;20030;-50
2021/07/31 02:22:58;;;;;;;11.63;6.20;;;;;;;;;;6302475;22;20006;-50
2021/07/31 02:25:24;;;;;;;10.30;6.63;;;;;;;;;;6302335;22;20791;-49
2021/07/31 02:27:50;;;;;;;7.75;6.00;;;;;;;;;;6302308;22;20000;-49
2021/07/31 02:30:15;;;;;;;11.50;5.65;;;;;;;;;;6302363;22;20018;-46
2021/07/31 02:32:40;;;;;;;14.68;7.25;;;;;;;;;;6302364;22;20068;-47
2021/07/31 02:35:06;;;;;;;29.63;9.93;;;;;;;;;;6302385;22;20025;-46
2021/07/31 02:37:31;;;;;;;8.77;5.68;;;;;;;;;;6302053;22;20682;-48
2021/07/31 02:39:57;;;;;;;10.48;5.00;;;;;;;;;;6301776;22;20034;-47
2021/07/31 02:42:22;;;;;;;28.80;6.93;;;;;;;;;;6302378;22;19995;-51
2021/07/31 02:44:47;;;;;;;7.90;5.43;;;;;;;;;;6302188;22;20416;-47
2021/07/31 02:47:13;;;;;;;5.72;5.00;;;;;;;;;;6302244;22;20387;-51
2021/07/31 02:49:38;;;;;;;8.40;6.22;;;;;;;;;;6302319;22;20377;-51
2021/07/31 02:52:03;;;;;;;8.13;5.68;;;;;;;;;;6302137;22;20459;-50
2021/07/31 02:54:29;;;;;;;11.30;5.65;;;;;;;;;;6302320;22;19999;-52
2021/07/31 02:56:54;;;;;;;13.18;7.03;;;;;;;;;;6301997;22;20003;-49
2021/07/31 02:59:19;;;;;;;12.88;7.25;;;;;;;;;;6301873;22;20413;-51
2021/07/31 03:01:44;;;;;;;21.02;11.02;;;;;;;;;;6301775;22;19999;-46
2021/07/31 03:04:10;;;;;;;11.55;8.02;;;;;;;;;;6302011;22;20021;-50
2021/07/31 03:06:35;;;;;;;11.52;8.93;;;;;;;;;;6302243;22;19996;-51
2021/07/31 03:09:00;;;;;;;13.32;8.05;;;;;;;;;;6301900;22;19999;-50
2021/07/31 03:11:26;;;;;;;16.10;8.23;;;;;;;;;;6302124;22;19991;-51
2021/07/31 03:13:51;;;;;;;10.52;7.85;;;;;;;;;;6301535;22;20000;-49
2021/07/31 03:16:16;;;;;;;10.30;7.03;;;;;;;;;;6302107;22;20030;-50
2021/07/31 03:18:42;;;;;;;10.65;6.90;;;;;;;;;;6301682;22;20447;-52
2021/07/31 03:21:07;;;;;;;11.57;6.75;;;;;;;;;;6302240;22;19999;-51
2021/07/31 03:23:33;;;;;;;10.40;6.22;;;;;;;;;;6301716;22;20317;-51
2021/07/31 03:25:58;;;;;;;7.65;6.63;;;;;;;;;;6301796;22;20006;-51
2021/07/31 03:28:24;;;;;;;13.40;9.30;;;;;;;;;;6301412;22;20077;-52
2021/07/31 03:30:49;;;;;;;9.98;5.55;;;;;;;;;;6302173;22;19996;-52
2021/07/31 03:33:14;;;;;;;8.75;6.28;;;;;;;;;;6301666;22;20026;-50
2021/07/31 03:35:40;;;;;;;9.23;5.57;;;;;;;;;;6302096;22;20057;-50
2021/07/31 03:38:06;;;;;;;12.43;7.55;;;;;;;;;;6301819;22;20011;-48
2021/07/31 03:40:32;;;;;;;9.55;7.40;;;;;;;;;;6301514;22;20630;-47
2021/07/31 03:42:57;;;;;;;11.13;6.60;;;;;;;;;;6301415;22;20005;-50
2021/07/31 03:45:22;;;;;;;17.67;6.68;;;;;;;;;;6301685;22;20006;-50
2021/07/31 03:47:48;;;;;;;11.52;7.18;;;;;;;;;;6300263;22;20026;-48
2021/07/31 03:50:13;;;;;;;9.50;6.93;;;;;;;;;;6301489;22;20421;-51
2021/07/31 03:52:38;;;;;;;9.05;6.60;;;;;;;;;;6301739;22;20006;-51
2021/07/31 03:55:05;;;;;;;12.38;7.32;;;;;;;;;;6301459;22;20000;-48
2021/07/31 03:57:30;;;;;;;22.40;7.45;;;;;;;;;;6301452;22;20673;-48
2021/07/31 03:59:55;;;;;;;11.30;7.07;;;;;;;;;;6301465;22;20003;-50
2021/07/31 04:02:21;;;;;;;12.05;6.90;;;;;;;;;;6301401;22;20018;-45
2021/07/31 04:04:46;;;;;;;11.95;6.60;;;;;;;;;;6303209;22;20003;-49
2021/07/31 04:07:11;;;;;;;9.23;6.47;;;;;;;;;;6303601;22;20004;-50
2021/07/31 04:09:36;;;;;;;8.63;5.43;;;;;;;;;;6304121;22;19998;-48
2021/07/31 04:12:02;;;;;;;6.40;4.72;;;;;;;;;;6303785;22;20084;-47
2021/07/31 04:14:29;;;;;;;11.95;6.28;;;;;;;;;;6303450;22;20086;-49
2021/07/31 04:16:54;;;;;;;10.63;7.70;;;;;;;;;;6303225;22;20078;-49
2021/07/31 04:19:20;;;;;;;22.60;6.18;;;;;;;;;;6303204;22;20039;-47
2021/07/31 04:21:45;;;;;;;10.57;6.65;;;;;;;;;;6303348;22;20433;-49
2021/07/31 04:24:10;;;;;;;9.52;5.85;;;;;;;;;;6303431;22;19995;-46
2021/07/31 04:26:35;;;;;;;13.50;6.82;;;;;;;;;;6303612;22;20006;-47
2021/07/31 04:29:01;;;;;;;11.82;6.57;;;;;;;;;;6302909;22;20421;-51
2021/07/31 04:31:26;;;;;;;9.10;7.60;;;;;;;;;;6303277;22;19995;-46
2021/07/31 04:33:54;;;;;;;5.90;5.30;;;;;;;;;;6303637;22;19996;-51
2021/07/31 04:36:20;;;;;;;9.35;7.28;;;;;;;;;;6303145;22;20003;-46
2021/07/31 04:38:45;;;;;;;10.40;9.35;;;;;;;;;;6303018;22;20026;-45
2021/07/31 04:41:10;;;;;;;9.48;7.80;;;;;;;;;;6303084;22;19995;-46
2021/07/31 04:43:36;;;;;;;9.63;7.93;;;;;;;;;;6303746;22;20003;-50
2021/07/31 04:46:02;;;;;;;9.85;5.82;;;;;;;;;;6303342;22;20321;-50
2021/07/31 04:48:27;;;;;;;6.95;5.68;;;;;;;;;;6302981;22;20008;-46
2021/07/31 04:51:00;;;;;;;18.38;5.70;;;;;;;;;;6303096;22;20092;-47
2021/07/31 04:53:26;;;;;;;8.38;6.25;;;;;;;;;;6302968;22;20109;-48
2021/07/31 04:55:51;;;;;;;26.50;19.17;;;;;;;;;;6303089;22;20003;-47
2021/07/31 04:58:17;;;;;;;17.40;8.38;;;;;;;;;;6303270;22;20096;-48
2021/07/31 05:00:42;;;;;;;17.70;7.60;;;;;;;;;;6303257;22;20033;-51
2021/07/31 05:03:07;;;;;;;9.68;7.78;;;;;;;;;;6303078;22;20006;-49
2021/07/31 05:05:33;;;;;;;17.42;7.88;;;;;;;;;;6302664;22;20066;-50
2021/07/31 05:07:58;;;;;;;9.48;7.72;;;;;;;;;;6302288;22;19998;-48
2021/07/31 05:10:24;;;;;;;18.45;9.95;;;;;;;;;;6303318;22;19995;-49
2021/07/31 05:12:49;;;;;;;22.88;8.57;;;;;;;;;;6303058;22;20330;-49
2021/07/31 05:15:15;;;;;;;9.57;8.38;;;;;;;;;;6302825;22;20000;-49
2021/07/31 05:17:40;;;;;;;15.10;7.18;;;;;;;;;;6303140;22;20321;-48
2021/07/31 05:20:05;;;;;;;14.18;7.28;;;;;;;;;;6302128;22;20337;-50
2021/07/31 05:22:31;;;;;;;20.00;8.43;;;;;;;;;;6302971;22;20006;-50
2021/07/31 05:24:56;;;;;;;9.20;6.82;;;;;;;;;;6302523;22;20056;-51
2021/07/31 05:27:21;;;;;;;8.52;6.25;;;;;;;;;;6302692;22;20015;-47
2021/07/31 05:29:46;;;;;;;7.30;6.32;;;;;;;;;;6302556;22;19999;-48
2021/07/31 05:32:12;;;;;;;8.15;6.25;;;;;;;;;;6302494;22;19991;-50
2021/07/31 05:34:38;;;;;;;12.10;8.80;;;;;;;;;;6302557;22;20006;-48
2021/07/31 05:37:03;;;;;;;9.52;7.43;;;;;;;;;;6302401;22;20044;-49
2021/07/31 05:39:33;;;;;;;16.75;8.63;;;;;;;;;;6302561;22;20021;-47
2021/07/31 05:41:58;;;;;;;11.77;7.20;;;;;;;;;;6302341;22;20631;-46
2021/07/31 05:44:24;;;;;;;8.70;7.40;;;;;;;;;;6302739;22;20025;-48
2021/07/31 05:46:49;;;;;;;9.15;7.75;;;;;;;;;;6302802;22;20070;-52
2021/07/31 05:49:14;;;;;;;23.60;7.45;;;;;;;;;;6302562;22;20505;-48
2021/07/31 05:51:40;;;;;;;11.35;7.53;;;;;;;;;;6300769;22;19998;-51
2021/07/31 05:54:05;;;;;;;13.70;7.25;;;;;;;;;;6302213;22;20019;-48
2021/07/31 05:56:30;;;;;;;10.32;7.45;;;;;;;;;;6302321;22;20014;-46
2021/07/31 05:58:55;;;;;;;12.60;7.25;;;;;;;;;;6302193;22;20056;-49
2021/07/31 06:01:21;;;;;;;32.85;20.90;;;;;;;;;;6302621;22;20026;-49
2021/07/31 06:03:47;;;;;;;29.25;24.55;;;;;;;;;;6302146;22;20428;-48
2021/07/31 06:06:13;;;;;;;25.05;14.70;;;;;;;;;;6302192;22;19999;-49
2021/07/31 06:08:38;;;;;;;14.05;12.43;;;;;;;;;;6302446;22;20371;-48
2021/07/31 06:11:04;;;;;;;25.63;18.80;;;;;;;;;;6302064;22;19995;-46
2021/07/31 06:13:30;;;;;;;23.45;14.63;;;;;;;;;;6302470;22;20019;-48
2021/07/31 06:15:55;;;;;;;23.27;15.15;;;;;;;;;;6302129;22;20018;-49
2021/07/31 06:18:21;;;;;;;24.80;14.60;;;;;;;;;;6302308;22;20074;-48
2021/07/31 06:20:46;;;;;;;23.63;14.15;;;;;;;;;;6301898;22;20034;-45
2021/07/31 06:23:11;;;;;;;13.02;11.05;;;;;;;;;;6301959;22;20049;-48
2021/07/31 06:25:36;;;;;;;20.15;12.13;;;;;;;;;;6301641;22;19999;-45
2021/07/31 06:28:02;;;;;;;19.83;10.40;;;;;;;;;;6301591;22;20117;-46
2021/07/31 06:30:27;;;;;;;18.10;11.50;;;;;;;;;;6302170;22;19991;-45
2021/07/31 06:32:52;;;;;;;20.25;13.65;;;;;;;;;;6302302;22;20026;-46
2021/07/31 06:35:18;;;;;;;18.15;10.70;;;;;;;;;;6301888;22;20003;-46
2021/07/31 06:37:43;;;;;;;8.38;6.80;;;;;;;;;;6301933;22;20006;-47
2021/07/31 06:40:09;;;;;;;10.23;8.15;;;;;;;;;;6302207;22;19995;-48
2021/07/31 06:42:34;;;;;;;14.30;9.30;;;;;;;;;;6302171;22;20371;-45
2021/07/31 06:44:59;;;;;;;17.92;8.32;;;;;;;;;;6301724;22;20014;-48
2021/07/31 06:47:25;;;;;;;18.13;7.75;;;;;;;;;;6302043;22;19991;-45
2021/07/31 06:49:50;;;;;;;17.55;9.82;;;;;;;;;;6301921;22;20026;-48
2021/07/31 06:52:15;;;;;;;43.58;12.95;;;;;;;;;;6301942;22;20006;-51
2021/07/31 06:54:41;;;;;;;13.23;10.43;;;;;;;;;;6302140;22;20110;-47
2021/07/31 06:57:12;;;;;;;24.92;13.65;;;;;;;;;;6301588;22;20031;-48
2021/07/31 06:59:37;;;;;;;15.90;9.07;;;;;;;;;;6301852;22;20048;-48
2021/07/31 07:02:03;;;;;;;10.00;7.13;;;;;;;;;;6301552;22;19999;-48
2021/07/31 07:04:28;;;;;;;16.45;9.00;;;;;;;;;;6301569;22;19995;-46
2021/07/31 07:06:53;;;;;;;19.48;9.25;;;;;;;;;;6302238;22;20030;-51
2021/07/31 07:09:18;;;;;;;22.35;9.68;;;;;;;;;;6301922;22;20068;-51
2021/07/31 07:11:44;;;;;;;16.20;9.88;;;;;;;;;;6301767;22;19991;-47
2021/07/31 07:14:09;;;;;;;15.85;8.10;;;;;;;;;;6301858;22;20068;-51
2021/07/31 07:16:35;;;;;;;11.45;9.13;;;;;;;;;;6301687;22;20363;-48
2021/07/31 07:19:00;;;;;;;21.00;8.63;;;;;;;;;;6301447;22;20077;-53
2021/07/31 07:21:26;;;;;;;17.27;9.18;;;;;;;;;;6302152;22;20004;-47
2021/07/31 07:23:51;;;;;;;10.38;8.50;;;;;;;;;;6302122;22;20427;-45
2021/07/31 07:26:16;;;;;;;12.88;8.43;;;;;;;;;;6301582;22;20412;-46
2021/07/31 07:28:42;;;;;;;16.10;7.93;;;;;;;;;;6301629;22;20040;-47
2021/07/31 07:31:10;;;;;;;15.75;7.70;;;;;;;;;;6301937;22;20060;-48
2021/07/31 07:33:35;;;;;;;21.73;8.82;;;;;;;;;;6301756;22;20436;-49
2021/07/31 07:36:00;;;;;;;28.60;11.55;;;;;;;;;;6301502;22;20066;-47
2021/07/31 07:38:26;;;;;;;21.73;9.35;;;;;;;;;;6303013;22;20035;-45
2021/07/31 07:40:51;;;;;;;11.23;8.15;;;;;;;;;;6303806;22;20006;-49
2021/07/31 07:43:16;;;;;;;9.38;8.38;;;;;;;;;;6303774;22;20000;-45
2021/07/31 07:45:43;;;;;;;14.95;7.57;;;;;;;;;;6303851;22;20416;-48
2021/07/31 07:48:09;;;;;;;12.13;9.20;;;;;;;;;;6303439;22;19998;-49
2021/07/31 07:50:34;;;;;;;13.77;6.82;;;;;;;;;;6303524;22;19995;-49
2021/07/31 07:53:00;;;;;;;9.98;8.63;;;;;;;;;;6303440;22;19999;-52
2021/07/31 07:55:25;;;;;;;10.25;7.18;;;;;;;;;;6303877;22;20006;-48
2021/07/31 07:57:50;;;;;;;14.48;5.47;;;;;;;;;;6303733;22;20022;-47
2021/07/31 08:00:16;;;;;;;7.90;5.78;;;;;;;;;;6303999;22;20003;-46
2021/07/31 08:02:41;;;;;;;11.77;8.25;;;;;;;;;;6303572;22;20440;-50
2021/07/31 08:05:07;;;;;;;14.02;7.30;;;;;;;;;;6302799;22;20006;-48
2021/07/31 08:07:32;;;;;;;19.83;7.53;;;;;;;;;;6303095;22;19999;-50
2021/07/31 08:09:57;;;;;;;12.75;7.82;;;;;;;;;;6303428;22;19999;-50
2021/07/31 08:12:22;;;;;;;19.13;6.75;;;;;;;;;;6303479;22;20628;-49
2021/07/31 08:14:48;;;;;;;7.70;6.93;;;;;;;;;;6303487;22;20077;-49
2021/07/31 08:17:13;;;;;;;14.00;9.35;;;;;;;;;;6303662;22;19999;-50
2021/07/31 08:19:38;;;;;;;13.50;6.80;;;;;;;;;;6303365;22;20263;-50
2021/07/31 08:22:04;;;;;;;12.95;9.43;;;;;;;;;;6303131;22;20004;-50
2021/07/31 08:24:29;;;;;;;25.73;9.40;;;;;;;;;;6303187;22;20078;-47
2021/07/31 08:26:54;;;;;;;10.23;6.85;;;;;;;;;;6301136;22;20053;-49
2021/07/31 08:29:19;;;;;;;17.23;8.32;;;;;;;;;;6303105;22;20321;-49
2021/07/31 08:31:45;;;;;;;14.68;8.55;;;;;;;;;;6303679;22;19995;-49
2021/07/31 08:34:12;;;;;;;19.30;5.97;;;;;;;;;;6303140;22;19996;-52
2021/07/31 08:36:37;;;;;;;13.40;6.78;;;;;;;;;;6302982;22;20081;-52
2021/07/31 08:39:03;;;;;;;13.18;7.38;;;;;;;;;;6302870;22;19992;-50
2021/07/31 08:41:28;;;;;;;13.00;6.70;;;;;;;;;;6302955;22;20019;-48
2021/07/31 08:43:57;;;;;;;26.65;5.07;;;;;;;;;;6304140;22;20491;-51
2021/07/31 08:46:22;;;;;;;14.93;7.20;;;;;;;;;;6303056;22;20328;-50
2021/07/31 08:48:48;;;;;;;10.07;6.78;;;;;;;;;;6302611;22;20014;-51
2021/07/31 08:51:18;;;;;;;15.75;8.25;;;;;;;;;;6303325;22;20074;-49
2021/07/31 08:53:44;;;;;;;18.95;8.55;;;;;;;;;;6303514;22;19991;-51
2021/07/31 08:56:09;;;;;;;18.73;7.13;;;;;;;;;;6303273;22;20521;-49
2021/07/31 08:58:38;;;;;;;27.77;7.30;;;;;;;;;;6303095;22;20069;-47
2021/07/31 09:01:03;;;;;;;26.90;7.70;;;;;;;;;;6302748;22;20484;-48
2021/07/31 09:03:28;;;;;;;17.88;7.55;;;;;;;;;;6303220;22;20038;-50
2021/07/31 09:05:54;;;;;;;8.93;6.57;;;;;;;;;;6302183;22;20033;-50
2021/07/31 09:08:19;;;;;;;14.95;6.78;;;;;;;;;;6302858;22;19991;-48
2021/07/31 09:10:46;;;;;;;9.73;6.63;;;;;;;;;;6302891;22;20018;-50
2021/07/31 09:13:13;;;;;;;16.48;8.70;;;;;;;;;;6302946;22;20200;-51
2021/07/31 09:15:42;;;;;;;10.15;7.40;;;;;;;;;;6302320;22;19999;-51
2021/07/31 09:18:30;;;;;;;16.60;7.32;;;;;;;;;;6302728;22;20336;-48
2021/07/31 09:21:15;;;;;;;10.55;5.75;;;;;;;;;;6302155;22;20019;-50
2021/07/31 09:23:46;;;;;;;8.50;4.70;;;;;;;;;;6302809;22;19995;-52
2021/07/31 09:26:12;;;;;;;22.55;6.80;;;;;;;;;;6302857;22;20003;-46
2021/07/31 09:28:40;;;;;;;7.22;4.28;;;;;;;;;;6302910;22;19999;-47
2021/07/31 09:31:06;;;;;;;13.40;6.43;;;;;;;;;;6302923;22;19999;-51
2021/07/31 09:33:31;;;;;;;6.07;3.97;;;;;;;;;;6302645;22;19995;-52
2021/07/31 09:36:01;;;;;;;6.25;4.30;;;;;;;;;;6302535;22;20003;-49
2021/07/31 09:38:39;;;;;;;11.68;3.95;;;;;;;;;;6303062;22;20034;-47
2021/07/31 09:41:20;;;;;;;8.95;4.45;;;;;;;;;;6302716;22;20030;-49
2021/07/31 09:44:02;;;;;;;9.85;3.83;;;;;;;;;;6302279;22;20039;-50
2021/07/31 09:46:32;;;;;;;8.90;3.58;;;;;;;;;;6302324;22;19995;-45
2021/07/31 09:48:57;;;;;;;11.07;4.43;;;;;;;;;;6302694;22;20003;-49
2021/07/31 09:51:36;;;;;;;7.05;2.92;;;;;;;;;;6302243;22;20416;-48
2021/07/31 09:54:02;;;;;;;16.30;4.47;;;;;;;;;;6302556;22;19995;-52
2021/07/31 09:56:29;;;;;;;8.77;4.70;;;;;;;;;;6302680;22;20015;-55
2021/07/31 09:58:56;;;;;;;8.02;3.88;;;;;;;;;;6301732;22;20010;-55
2021/07/31 10:01:22;;;;;;;12.88;5.35;;;;;;;;;;6302545;22;19995;-54
2021/07/31 10:03:47;;;;;;;11.48;4.13;;;;;;;;;;6302251;22;20002;-54
2021/07/31 10:06:13;;;;;;;15.52;4.82;;;;;;;;;;6302089;22;19995;-56
2021/07/31 10:08:40;;;;;;;7.22;3.70;;;;;;;;;;6302051;22;20071;-56
2021/07/31 10:11:06;;;;;;;11.98;3.80;;;;;;;;;;6301862;22;19991;-56
2021/07/31 10:13:33;;;;;;;5.82;5.03;;;;;;;;;;6302614;22;19991;-56
2021/07/31 10:15:58;;;;;;;10.95;5.88;;;;;;;;;;6302239;22;20426;-57
2021/07/31 10:18:26;;;;;;;18.52;5.43;;;;;;;;;;6302458;22;20461;-52
2021/07/31 10:20:51;;;;;;;8.02;4.60;;;;;;;;;;6302058;22;20067;-49
2021/07/31 10:23:35;;;;;;;8.60;5.88;;;;;;;;;;6302508;22;20184;-49
2021/07/31 10:26:07;;;;;;;9.88;3.38;;;;;;;;;;6301984;22;19999;-48
2021/07/31 10:28:33;;;;;;;7.55;5.55;;;;;;;;;;6302485;22;19995;-50
2021/07/31 10:31:17;;;;;;;8.70;4.93;;;;;;;;;;6301897;22;19999;-50
2021/07/31 10:33:43;;;;;;;9.82;4.78;;;;;;;;;;6302533;22;20000;-49
2021/07/31 10:36:27;;;;;;;12.77;6.90;;;;;;;;;;6301811;22;20010;-52
2021/07/31 10:38:53;;;;;;;17.95;5.28;;;;;;;;;;6302268;22;20014;-50
2021/07/31 10:41:37;;;;;;;15.23;6.80;;;;;;;;;;6301632;22;20003;-52
2021/07/31 10:44:09;;;;;;;15.65;6.50;;;;;;;;;;6301869;22;20070;-51
2021/07/31 10:46:34;;;;;;;6.95;4.28;;;;;;;;;;6302195;22;19995;-49
2021/07/31 10:49:19;;;;;;;12.00;6.15;;;;;;;;;;6301936;22;20072;-52
2021/07/31 10:51:45;;;;;;;19.95;7.55;;;;;;;;;;6301677;22;20030;-50
2021/07/31 10:54:10;;;;;;;22.50;4.80;;;;;;;;;;6301772;22;20003;-48
2021/07/31 10:56:52;;;;;;;6.82;5.93;;;;;;;;;;6301855;22;20049;-53
2021/07/31 10:59:19;;;;;;;13.07;4.32;;;;;;;;;;6301697;22;20003;-49
2021/07/31 11:01:45;;;;;;;13.20;5.30;;;;;;;;;;6302137;22;20030;-53
2021/07/31 11:04:30;;;;;;;13.93;4.35;;;;;;;;;;6301634;22;20436;-49
2021/07/31 11:07:11;;;;;;;9.43;5.22;;;;;;;;;;6301546;22;20412;-57
2021/07/31 11:09:36;;;;;;;9.18;4.45;;;;;;;;;;6301666;22;20022;-56
2021/07/31 11:12:31;;;;;;;14.52;5.45;;;;;;;;;;6302585;22;19999;-57
2021/07/31 11:15:06;;;;;;;7.43;4.45;;;;;;;;;;6284771;22;20003;-57
2021/07/31 11:17:31;;;;;;;7.90;5.25;;;;;;;;;;6304943;22;19991;-57
2021/07/31 11:19:57;;;;;;;20.42;5.15;;;;;;;;;;6304371;22;20015;-56
2021/07/31 11:22:25;;;;;;;18.73;5.75;;;;;;;;;;6304676;22;19999;-53
2021/07/31 11:24:50;;;;;;;9.55;6.55;;;;;;;;;;6304754;22;20425;-52
2021/07/31 11:27:16;;;;;;;13.02;5.45;;;;;;;;;;6305089;22;20042;-49
2021/07/31 11:29:51;;;;;;;12.20;5.68;;;;;;;;;;6305071;22;19999;-47
2021/07/31 11:32:16;;;;;;;21.05;7.05;;;;;;;;;;6305062;22;20448;-49
2021/07/31 11:34:42;;;;;;;12.73;4.75;;;;;;;;;;6305414;22;20003;-50
2021/07/31 11:37:08;;;;;;;11.02;6.82;;;;;;;;;;6304862;22;20003;-50
2021/07/31 11:39:33;;;;;;;10.07;5.03;;;;;;;;;;6305210;22;20009;-48
2021/07/31 11:41:59;;;;;;;8.10;5.20;;;;;;;;;;6305225;22;20091;-54
2021/07/31 11:44:28;;;;;;;7.03;4.22;;;;;;;;;;6305300;22;20444;-56
2021/07/31 11:46:53;;;;;;;7.57;4.15;;;;;;;;;;6305247;22;20030;-57
2021/07/31 11:49:28;;;;;;;8.18;3.97;;;;;;;;;;6304965;22;20313;-57
2021/07/31 11:51:57;;;;;;;7.32;5.32;;;;;;;;;;6304559;22;20646;-58
2021/07/31 11:54:23;;;;;;;15.98;6.00;;;;;;;;;;6304972;22;20002;-57
2021/07/31 11:56:50;;;;;;;6.38;4.03;;;;;;;;;;6305207;22;19991;-57
2021/07/31 11:59:28;;;;;;;7.30;4.03;;;;;;;;;;6304546;22;20034;-56
2021/07/31 12:01:55;;;;;;;11.23;4.53;;;;;;;;;;6304931;22;19999;-57
2021/07/31 12:04:39;;;;;;;5.88;3.95;;;;;;;;;;6305141;22;20002;-57
2021/07/31 12:07:14;;;;;;;13.15;4.22;;;;;;;;;;6304906;22;20440;-57
2021/07/31 12:09:41;;;;;;;16.67;5.18;;;;;;;;;;6305159;22;20037;-57
2021/07/31 12:12:27;;;;;;;32.83;25.85;;;;;;;;;;6305031;22;20010;-57
2021/07/31 12:15:07;;;;;;;12.00;5.82;;;;;;;;;;6304112;22;20179;-57
2021/07/31 12:17:33;;;;;;;6.15;4.30;;;;;;;;;;6304995;22;20052;-57
2021/07/31 12:19:59;;;;;;;15.73;5.55;;;;;;;;;;6304235;22;20027;-57
2021/07/31 12:22:34;;;;;;;6.80;5.30;;;;;;;;;;6304851;22;20507;-57
2021/07/31 12:25:05;;;;;;;10.20;5.18;;;;;;;;;;6302609;22;20022;-57
2021/07/31 12:27:50;;;;;;;21.98;6.78;;;;;;;;;;6303109;22;19995;-57
2021/07/31 12:30:31;;;;;;;5.75;4.35;;;;;;;;;;6303169;22;20015;-57
2021/07/31 12:33:01;;;;;;;10.50;6.30;;;;;;;;;;6303630;22;20003;-58
2021/07/31 12:35:32;;;;;;;6.43;4.60;;;;;;;;;;6303565;22;20274;-57
2021/07/31 12:37:57;;;;;;;10.85;5.75;;;;;;;;;;6303514;22;19999;-57
2021/07/31 12:40:22;;;;;;;15.63;6.38;;;;;;;;;;6303174;22;20376;-57
2021/07/31 12:42:48;;;;;;;7.45;5.25;;;;;;;;;;6303393;22;20012;-58
2021/07/31 12:45:13;;;;;;;11.27;7.35;;;;;;;;;;6302974;22;20336;-58
2021/07/31 12:47:39;;;;;;;10.15;5.10;;;;;;;;;;6303488;22;19998;-58
2021/07/31 12:50:04;;;;;;;8.50;6.25;;;;;;;;;;6303019;22;20071;-58
2021/07/31 12:52:29;;;;;;;8.73;5.18;;;;;;;;;;6303164;22;19996;-57
2021/07/31 12:54:55;;;;;;;19.50;6.63;;;;;;;;;;6303166;22;19999;-57
2021/07/31 12:57:20;;;;;;;10.70;6.80;;;;;;;;;;6302819;22;20033;-52
2021/07/31 12:59:46;;;;;;;6.47;5.88;;;;;;;;;;6302709;22;19995;-51
2021/07/31 13:02:11;;;;;;;14.73;5.75;;;;;;;;;;6302750;22;20002;-49
2021/07/31 13:04:36;;;;;;;18.48;5.50;;;;;;;;;;6303173;22;20003;-49
2021/07/31 13:07:02;;;;;;;14.20;6.10;;;;;;;;;;6302239;22;20408;-50
2021/07/31 13:09:27;;;;;;;21.58;6.53;;;;;;;;;;6302923;22;20087;-45
2021/07/31 13:11:53;;;;;;;11.50;6.15;;;;;;;;;;6302293;22;20056;-45
2021/07/31 13:14:18;;;;;;;11.23;5.50;;;;;;;;;;6303326;22;19995;-45
2021/07/31 13:16:43;;;;;;;7.88;6.18;;;;;;;;;;6302857;22;20478;-44
2021/07/31 13:19:08;;;;;;;7.40;4.40;;;;;;;;;;6302550;22;20053;-46
2021/07/31 13:21:34;;;;;;;10.65;4.32;;;;;;;;;;6302634;22;20011;-43
2021/07/31 13:24:01;;;;;;;13.20;6.60;;;;;;;;;;6302372;22;20062;-43
2021/07/31 13:26:26;;;;;;;5.57;4.93;;;;;;;;;;6303075;22;19999;-43
2021/07/31 13:28:51;;;;;;;8.75;5.80;;;;;;;;;;6302974;22;19999;-44
2021/07/31 13:31:16;;;;;;;12.88;7.18;;;;;;;;;;6302983;22;20316;-44
2021/07/31 13:33:42;;;;;;;19.40;7.30;;;;;;;;;;6302469;22;20025;-43
2021/07/31 13:36:07;;;;;;;5.55;4.80;;;;;;;;;;6302281;22;19999;-44
2021/07/31 13:38:35;;;;;;;8.90;5.13;;;;;;;;;;6302935;22;20041;-46
2021/07/31 13:41:01;;;;;;;9.55;5.53;;;;;;;;;;6302253;22;20557;-49
2021/07/31 13:43:26;;;;;;;7.05;5.05;;;;;;;;;;6302500;22;19996;-47
2021/07/31 13:45:52;;;;;;;8.32;5.57;;;;;;;;;;6302306;22;20056;-46
2021/07/31 13:48:19;;;;;;;13.43;6.00;;;;;;;;;;6302714;22;20006;-46
2021/07/31 13:50:44;;;;;;;11.00;5.75;;;;;;;;;;6302093;22;19991;-47
2021/07/31 13:53:09;;;;;;;20.17;7.72;;;;;;;;;;6302638;22;19995;-51
2021/07/31 13:55:36;;;;;;;8.45;5.38;;;;;;;;;;6302370;22;19999;-49
2021/07/31 13:58:01;;;;;;;11.25;7.35;;;;;;;;;;6302549;22;20015;-45
2021/07/31 14:00:26;;;;;;;13.15;6.55;;;;;;;;;;6302308;22;20068;-46
2021/07/31 14:02:52;;;;;;;9.30;6.25;;;;;;;;;;6302081;22;20003;-48
2021/07/31 14:05:17;;;;;;;11.05;7.72;;;;;;;;;;6302753;22;20010;-45
2021/07/31 14:07:45;;;;;;;16.88;6.05;;;;;;;;;;6302831;22;20436;-45
2021/07/31 14:10:11;;;;;;;9.70;4.97;;;;;;;;;;6302363;22;20057;-48
2021/07/31 14:12:37;;;;;;;9.00;5.60;;;;;;;;;;6302702;22;19999;-47
2021/07/31 14:15:03;;;;;;;8.25;5.93;;;;;;;;;;6302904;22;20063;-45
2021/07/31 14:17:28;;;;;;;13.20;6.18;;;;;;;;;;6303055;22;20026;-48
2021/07/31 14:19:53;;;;;;;14.27;7.25;;;;;;;;;;6302267;22;20023;-45
2021/07/31 14:22:19;;;;;;;8.38;5.43;;;;;;;;;;6302397;22;20419;-49
2021/07/31 14:24:44;;;;;;;13.85;5.78;;;;;;;;;;6302029;22;20428;-48
2021/07/31 14:27:09;;;;;;;13.48;5.97;;;;;;;;;;6302338;22;20002;-46
2021/07/31 14:29:38;;;;;;;8.15;5.20;;;;;;;;;;6302386;22;20064;-46
2021/07/31 14:32:03;;;;;;;7.80;5.65;;;;;;;;;;6302345;22;19992;-46